createdAt,value
2022-08-18T00:02:05.954Z,19.37
2022-08-18T00:04:48.571Z,19.37
2022-08-18T00:07:21.779Z,19.37
2022-08-18T00:09:51.204Z,19.37
2022-08-18T00:12:25.727Z,19.40
2022-08-18T00:14:56.925Z,19.31
2022-08-18T00:17:26.269Z,19.37
2022-08-18T00:19:57.145Z,19.36
2022-08-18T00:22:29.132Z,19.38
2022-08-18T00:24:59.132Z,19.43
2022-08-18T00:27:30.785Z,19.41
2022-08-18T00:30:03.547Z,19.47
2022-08-18T00:32:37.528Z,19.43
2022-08-18T00:35:13.823Z,19.48
2022-08-18T00:37:44.372Z,19.45
2022-08-18T00:40:18.982Z,19.43
2022-08-18T00:42:52.961Z,19.48
2022-08-18T00:45:27.651Z,19.49
2022-08-18T00:47:58.018Z,19.42
2022-08-18T00:50:35.078Z,19.46
2022-08-18T00:53:12.301Z,19.45
2022-08-18T00:55:54.056Z,19.45
2022-08-18T00:58:29.665Z,19.38
2022-08-18T01:01:01.591Z,19.33
2022-08-18T01:03:33.780Z,19.30
2022-08-18T01:06:11.067Z,19.27
2022-08-18T01:08:41.144Z,19.27
2022-08-18T01:11:11.908Z,19.04
2022-08-18T01:13:42.772Z,19.20
2022-08-18T01:16:29.890Z,19.14
2022-08-18T01:19:16.697Z,19.14
2022-08-18T01:21:52.478Z,19.05
2022-08-18T01:24:42.192Z,19.05
2022-08-18T01:27:14.162Z,19.06
2022-08-18T01:29:43.741Z,19.12
2022-08-18T01:32:19.778Z,19.06
2022-08-18T01:34:50.235Z,19.12
2022-08-18T01:37:23.432Z,19.13
2022-08-18T01:41:22.675Z,19.10
2022-08-18T01:42:46.711Z,19.13
2022-08-18T01:45:20.780Z,19.12
2022-08-18T01:47:50.778Z,19.13
2022-08-18T01:50:20.151Z,19.06
2022-08-18T01:52:50.117Z,19.11
2022-08-18T01:55:21.124Z,19.18
2022-08-18T01:57:50.527Z,19.13
2022-08-18T02:00:20.258Z,19.13
2022-08-18T02:03:01.630Z,19.12
2022-08-18T02:05:38.812Z,19.12
2022-08-18T02:08:10.794Z,19.12
2022-08-18T02:10:42.471Z,19.10
2022-08-18T02:13:11.878Z,19.04
2022-08-18T02:15:42.881Z,18.95
2022-08-18T02:18:37.167Z,18.98
2022-08-18T02:21:11.847Z,18.92
2022-08-18T02:23:44.934Z,18.97
2022-08-18T02:26:24.891Z,18.96
2022-08-18T02:28:54.234Z,18.94
2022-08-18T02:31:26.313Z,18.91
2022-08-18T02:33:55.567Z,18.86
2022-08-18T02:36:25.326Z,18.91
2022-08-18T02:38:59.305Z,18.81
2022-08-18T02:41:31.423Z,18.80
2022-08-18T02:44:01.330Z,18.62
2022-08-18T02:46:31.231Z,18.64
2022-08-18T02:49:01.719Z,18.54
2022-08-18T02:51:31.107Z,18.58
2022-08-18T02:54:00.366Z,18.55
2022-08-18T02:56:40.949Z,18.44
2022-08-18T02:59:16.221Z,18.42
2022-08-18T03:01:49.145Z,18.29
2022-08-18T03:04:24.073Z,18.35
2022-08-18T03:06:57.437Z,18.36
2022-08-18T03:09:26.748Z,18.28
2022-08-18T03:11:57.407Z,18.35
2022-08-18T03:14:27.320Z,18.33
2022-08-18T03:16:56.742Z,18.30
2022-08-18T03:19:29.318Z,18.21
2022-08-18T03:22:02.878Z,18.08
2022-08-18T03:24:33.880Z,18.11
2022-08-18T03:27:08.024Z,18.06
2022-08-18T03:29:37.567Z,18.24
2022-08-18T03:32:09.567Z,18.15
2022-08-18T03:34:38.970Z,18.31
2022-08-18T03:37:08.270Z,18.28
2022-08-18T03:39:37.860Z,18.26
2022-08-18T03:42:08.759Z,18.28
2022-08-18T03:44:38.204Z,18.35
2022-08-18T03:47:11.924Z,18.30
2022-08-18T03:49:41.891Z,18.32
2022-08-18T03:52:11.990Z,18.22
2022-08-18T03:54:42.129Z,18.23
2022-08-18T03:57:14.342Z,18.24
2022-08-18T03:59:44.008Z,18.29
2022-08-18T04:02:13.342Z,18.29
2022-08-18T04:04:42.899Z,18.30
2022-08-18T04:07:17.147Z,18.23
2022-08-18T04:09:47.133Z,18.29
2022-08-18T04:12:19.103Z,18.18
2022-08-18T04:14:50.783Z,18.19
2022-08-18T04:17:24.891Z,18.20
2022-08-18T04:19:55.362Z,18.25
2022-08-18T04:22:26.466Z,18.23
2022-08-18T04:24:56.165Z,18.25
2022-08-18T04:27:29.932Z,18.27
2022-08-18T04:29:59.489Z,18.22
2022-08-18T04:32:31.121Z,18.23
2022-08-18T04:35:02.807Z,18.29
2022-08-18T04:37:33.236Z,18.16
2022-08-18T04:40:11.285Z,18.15
2022-08-18T04:42:44.921Z,18.21
2022-08-18T04:45:14.398Z,18.26
2022-08-18T04:47:43.789Z,18.15
2022-08-18T04:50:14.128Z,18.22
2022-08-18T04:53:02.141Z,18.23
2022-08-18T04:55:31.414Z,18.16
2022-08-18T04:58:02.709Z,18.17
2022-08-18T05:00:32.071Z,18.19
2022-08-18T05:03:01.269Z,18.19
2022-08-18T05:05:30.389Z,18.19
2022-08-18T05:07:59.679Z,18.20
2022-08-18T05:10:29.128Z,18.22
2022-08-18T05:12:58.748Z,18.23
2022-08-18T05:15:42.142Z,18.19
2022-08-18T05:18:24.387Z,18.18
2022-08-18T05:20:59.227Z,18.15
2022-08-18T05:23:29.592Z,18.12
2022-08-18T05:26:00.862Z,18.12
2022-08-18T05:28:30.500Z,18.17
2022-08-18T05:31:01.121Z,18.15
2022-08-18T05:33:30.594Z,18.18
2022-08-18T05:36:06.050Z,18.09
2022-08-18T05:38:49.024Z,18.02
2022-08-18T05:41:28.112Z,18.11
2022-08-18T05:43:59.518Z,18.09
2022-08-18T05:46:41.607Z,18.15
2022-08-18T05:49:12.015Z,18.17
2022-08-18T05:51:46.541Z,18.12
2022-08-18T05:54:35.053Z,18.18
2022-08-18T05:57:09.133Z,18.18
2022-08-18T05:59:42.941Z,18.22
2022-08-18T06:02:21.509Z,18.21
2022-08-18T06:04:57.327Z,18.23
2022-08-18T06:07:35.580Z,18.32
2022-08-18T06:10:07.494Z,18.29
2022-08-18T06:12:46.963Z,18.37
2022-08-18T06:15:21.718Z,18.27
2022-08-18T06:18:35.069Z,18.38
2022-08-18T06:21:38.797Z,18.43
2022-08-18T06:24:18.618Z,18.34
2022-08-18T06:26:57.406Z,18.41
2022-08-18T06:29:48.044Z,18.38
2022-08-18T06:32:29.643Z,18.51
2022-08-18T06:35:19.430Z,18.53
2022-08-18T06:38:16.539Z,18.52
2022-08-18T06:40:48.118Z,18.61
2022-08-18T06:43:22.710Z,18.61
2022-08-18T06:45:53.233Z,18.44
2022-08-18T06:48:33.701Z,18.77
2022-08-18T06:51:08.608Z,18.71
2022-08-18T06:53:59.530Z,18.83
2022-08-18T06:56:49.177Z,18.89
2022-08-18T06:59:25.300Z,18.87
2022-08-18T07:02:00.402Z,18.87
2022-08-18T07:04:43.808Z,18.90
2022-08-18T07:07:39.849Z,18.98
2022-08-18T07:10:34.576Z,18.96
2022-08-18T07:13:25.691Z,19.11
2022-08-18T07:15:57.602Z,19.30
2022-08-18T07:18:30.009Z,19.30
2022-08-18T07:21:03.371Z,19.43
2022-08-18T07:23:39.005Z,19.62
2022-08-18T07:26:15.703Z,19.67
2022-08-18T07:28:48.576Z,19.81
2022-08-18T07:31:36.146Z,19.78
2022-08-18T07:34:13.671Z,19.79
2022-08-18T07:36:51.458Z,19.71
2022-08-18T07:39:29.255Z,19.92
2022-08-18T07:42:06.490Z,19.87
2022-08-18T07:44:47.990Z,19.83
2022-08-18T07:47:23.510Z,19.83
2022-08-18T07:50:18.306Z,19.93
2022-08-18T07:52:54.808Z,19.93
2022-08-18T07:55:31.969Z,19.91
2022-08-18T07:58:13.199Z,19.88
2022-08-18T08:00:59.270Z,19.87
2022-08-18T08:03:46.863Z,19.99
2022-08-18T08:06:21.210Z,20.03
2022-08-18T08:09:00.878Z,20.03
2022-08-18T08:11:49.489Z,20.03
2022-08-18T08:14:41.575Z,19.95
2022-08-18T08:17:25.851Z,20.03
2022-08-18T08:20:23.864Z,20.12
2022-08-18T08:23:17.813Z,20.14
2022-08-18T08:26:05.889Z,20.21
2022-08-18T08:28:55.098Z,20.28
2022-08-18T08:31:38.467Z,20.34
2022-08-18T08:34:15.293Z,20.29
2022-08-18T08:36:48.291Z,20.50
2022-08-18T08:39:28.489Z,20.51
2022-08-18T08:42:30.293Z,20.51
2022-08-18T08:45:03.728Z,20.51
2022-08-18T08:47:44.638Z,20.66
2022-08-18T08:50:19.175Z,20.38
2022-08-18T08:52:57.133Z,20.77
2022-08-18T08:55:31.122Z,20.75
2022-08-18T08:58:17.764Z,20.82
2022-08-18T09:00:51.762Z,21.01
2022-08-18T09:03:38.094Z,21.03
2022-08-18T09:06:23.906Z,21.15
2022-08-18T09:09:25.489Z,21.13
2022-08-18T09:12:42.749Z,21.21
2022-08-18T09:15:46.575Z,21.36
2022-08-18T09:18:45.042Z,21.35
2022-08-18T09:21:42.238Z,21.52
2022-08-18T09:24:25.850Z,21.47
2022-08-18T09:27:15.405Z,21.63
2022-08-18T09:29:53.572Z,21.74
2022-08-18T09:32:58.498Z,21.81
2022-08-18T09:36:00.096Z,22.03
2022-08-18T09:38:50.830Z,22.20
2022-08-18T09:41:34.242Z,22.40
2022-08-18T09:47:02.765Z,22.39
2022-08-18T09:49:53.038Z,22.44
2022-08-18T09:50:37.283Z,22.33
2022-08-18T09:53:04.612Z,22.49
2022-08-18T09:56:05.067Z,22.56
2022-08-18T09:58:58.853Z,22.65
2022-08-18T10:01:39.985Z,22.68
2022-08-18T10:04:34.233Z,22.63
2022-08-18T10:07:43.655Z,22.65
2022-08-18T10:10:59.339Z,22.64
2022-08-18T10:13:25.493Z,22.59
2022-08-18T10:16:16.865Z,22.76
2022-08-18T10:19:11.541Z,22.90
2022-08-18T10:22:11.263Z,22.90
2022-08-18T10:24:53.567Z,22.84
2022-08-18T10:27:56.928Z,23.08
2022-08-18T10:31:10.097Z,23.13
2022-08-18T10:34:16.007Z,23.24
2022-08-18T10:36:54.465Z,23.33
2022-08-18T10:42:44.602Z,23.67
2022-08-18T10:45:24.933Z,23.78
2022-08-18T10:48:11.859Z,23.83
2022-08-18T10:50:55.235Z,24.08
2022-08-18T10:53:39.309Z,24.10
2022-08-18T10:56:29.778Z,24.26
2022-08-18T11:02:43.012Z,24.42
2022-08-18T11:05:19.040Z,24.36
2022-08-18T11:07:52.035Z,24.24
2022-08-18T11:10:58.212Z,24.17
2022-08-18T11:13:36.703Z,24.08
2022-08-18T11:16:19.485Z,23.96
2022-08-18T11:18:52.947Z,23.93
2022-08-18T11:21:32.978Z,23.93
2022-08-18T11:24:11.948Z,23.94
2022-08-18T11:26:53.145Z,23.98
2022-08-18T11:29:32.155Z,23.87
2022-08-18T11:32:11.147Z,23.87
2022-08-18T11:43:39.111Z,23.55
2022-08-18T11:46:16.480Z,23.50
2022-08-18T11:48:53.256Z,23.59
2022-08-18T11:51:27.009Z,23.48
2022-08-18T11:54:00.688Z,23.67
2022-08-18T11:56:37.714Z,23.73
2022-08-18T11:59:54.440Z,23.66
2022-08-18T12:02:27.318Z,23.86
2022-08-18T12:05:10.611Z,23.81
2022-08-18T12:07:49.630Z,23.84
2022-08-18T12:10:29.722Z,23.84
2022-08-18T12:13:01.286Z,23.68
2022-08-18T12:15:44.233Z,23.56
2022-08-18T12:21:10.098Z,23.58
2022-08-18T12:23:52.244Z,23.54
2022-08-18T12:26:38.551Z,23.64
2022-08-18T12:29:09.025Z,23.63
2022-08-18T12:34:29.975Z,23.69
2022-08-18T12:37:02.162Z,23.68
2022-08-18T12:39:39.905Z,23.77
2022-08-18T12:44:58.604Z,23.72
2022-08-18T12:47:31.233Z,23.63
2022-08-18T12:50:01.202Z,23.71
2022-08-18T12:52:32.242Z,23.70
2022-08-18T12:55:01.693Z,23.70
2022-08-18T12:57:52.346Z,23.59
2022-08-18T13:00:27.732Z,23.56
2022-08-18T13:02:57.667Z,23.53
2022-08-18T13:05:29.707Z,23.68
2022-08-18T13:08:04.955Z,23.71
2022-08-18T13:10:45.621Z,23.96
2022-08-18T13:13:18.109Z,24.13
2022-08-18T13:15:57.902Z,24.09
2022-08-18T13:18:29.413Z,24.28
2022-08-18T13:20:59.096Z,24.26
2022-08-18T13:23:30.791Z,24.38
2022-08-18T13:26:03.068Z,24.53
2022-08-18T13:28:36.079Z,24.51
2022-08-18T13:31:24.175Z,24.74
2022-08-18T13:33:57.095Z,24.90
2022-08-18T13:36:45.989Z,25.01
2022-08-18T13:39:20.072Z,25.05
2022-08-18T13:41:52.805Z,25.18
2022-08-18T13:44:25.927Z,25.45
2022-08-18T13:46:56.530Z,25.74
2022-08-18T13:49:29.950Z,25.89
2022-08-18T13:52:01.162Z,26.14
2022-08-18T13:54:36.099Z,26.18
2022-08-18T13:57:06.774Z,26.46
2022-08-18T13:59:36.227Z,26.73
2022-08-18T14:02:10.040Z,26.66
2022-08-18T14:04:40.376Z,26.49
2022-08-18T14:07:18.239Z,26.19
2022-08-18T14:09:49.762Z,26.53
2022-08-18T14:12:25.972Z,26.36
2022-08-18T14:14:58.074Z,26.46
2022-08-18T14:17:28.777Z,26.56
2022-08-18T14:20:22.096Z,26.46
2022-08-18T14:23:22.041Z,26.12
2022-08-18T14:26:13.335Z,25.85
2022-08-18T14:28:53.214Z,25.60
2022-08-18T14:31:22.987Z,25.42
2022-08-18T14:34:03.097Z,25.42
2022-08-18T14:36:34.131Z,25.38
2022-08-18T14:39:08.713Z,25.38
2022-08-18T14:41:49.415Z,25.40
2022-08-18T14:44:26.133Z,25.76
2022-08-18T14:47:02.196Z,26.19
2022-08-18T14:49:31.893Z,26.62
2022-08-18T14:52:03.511Z,27.15
2022-08-18T14:54:46.096Z,27.09
2022-08-18T14:57:17.543Z,27.09
2022-08-18T14:59:55.630Z,27.04
2022-08-18T15:02:29.628Z,26.90
2022-08-18T15:05:19.779Z,26.64
2022-08-18T15:08:00.651Z,26.51
2022-08-18T15:10:33.392Z,26.03
2022-08-18T15:13:07.332Z,25.92
2022-08-18T15:15:50.694Z,25.49
2022-08-18T15:18:22.820Z,25.57
2022-08-18T15:21:35.671Z,25.55
2022-08-18T15:24:20.095Z,25.58
2022-08-18T15:26:51.863Z,25.51
2022-08-18T15:29:29.515Z,25.62
2022-08-18T15:32:05.767Z,25.72
2022-08-18T15:34:47.043Z,25.88
2022-08-18T15:37:24.379Z,26.10
2022-08-18T15:40:05.829Z,26.25
2022-08-18T15:42:35.253Z,26.56
2022-08-18T15:45:12.009Z,26.69
2022-08-18T15:47:44.340Z,26.80
2022-08-18T15:50:21.969Z,26.90
2022-08-18T15:52:58.930Z,27.04
2022-08-18T15:55:35.742Z,27.09
2022-08-18T15:58:11.023Z,27.26
2022-08-18T16:00:45.903Z,27.17
2022-08-18T16:03:17.052Z,27.28
2022-08-18T16:05:53.170Z,27.33
2022-08-18T16:08:24.945Z,27.27
2022-08-18T16:10:55.514Z,27.17
2022-08-18T16:13:26.561Z,26.99
2022-08-18T16:15:57.324Z,26.58
2022-08-18T16:18:27.730Z,26.28
2022-08-18T16:20:56.967Z,26.03
2022-08-18T16:23:26.169Z,25.76
2022-08-18T16:26:04.278Z,25.76
2022-08-18T16:28:35.212Z,25.60
2022-08-18T16:31:06.531Z,25.45
2022-08-18T16:33:36.610Z,25.35
2022-08-18T16:36:07.653Z,25.26
2022-08-18T16:38:38.973Z,25.45
2022-08-18T16:41:13.994Z,25.37
2022-08-18T16:43:46.469Z,25.51
2022-08-18T16:46:18.961Z,25.43
2022-08-18T16:48:48.364Z,25.43
2022-08-18T16:51:22.375Z,25.69
2022-08-18T16:53:53.678Z,25.80
2022-08-18T16:56:26.849Z,25.71
2022-08-18T16:59:15.061Z,25.65
2022-08-18T17:02:02.793Z,25.46
2022-08-18T17:04:34.677Z,25.41
2022-08-18T17:07:06.968Z,25.28
2022-08-18T17:09:37.094Z,25.15
2022-08-18T17:12:06.702Z,25.09
2022-08-18T17:14:36.993Z,25.23
2022-08-18T17:17:07.792Z,25.32
2022-08-18T17:19:37.729Z,25.33
2022-08-18T17:22:08.223Z,25.32
2022-08-18T17:24:38.402Z,25.25
2022-08-18T17:27:27.188Z,25.04
2022-08-18T17:30:04.318Z,25.12
2022-08-18T17:32:50.000Z,25.06
2022-08-18T17:35:29.303Z,24.79
2022-08-18T17:38:04.870Z,24.73
2022-08-18T17:40:43.953Z,24.63
2022-08-18T17:43:16.147Z,24.51
2022-08-18T17:45:48.558Z,24.34
2022-08-18T17:48:23.587Z,24.17
2022-08-18T17:51:16.323Z,24.02
2022-08-18T17:53:46.792Z,23.76
2022-08-18T17:56:21.675Z,23.52
2022-08-18T17:58:56.968Z,23.53
2022-08-18T18:01:28.857Z,23.43
2022-08-18T18:04:00.468Z,23.45
2022-08-18T18:06:38.313Z,23.50
2022-08-18T18:09:11.178Z,23.60
2022-08-18T18:11:46.182Z,23.62
2022-08-18T18:14:29.668Z,23.57
2022-08-18T18:17:11.781Z,23.51
2022-08-18T18:19:46.564Z,23.46
2022-08-18T18:22:24.219Z,23.19
2022-08-18T18:24:57.458Z,23.01
2022-08-18T18:27:33.533Z,22.97
2022-08-18T18:30:07.661Z,22.98
2022-08-18T18:32:58.940Z,23.03
2022-08-18T18:35:34.260Z,22.67
2022-08-18T18:38:29.069Z,22.82
2022-08-18T18:41:02.587Z,22.55
2022-08-18T18:43:38.433Z,22.11
2022-08-18T18:46:35.431Z,22.03
2022-08-18T18:49:19.494Z,21.91
2022-08-18T18:52:06.803Z,21.76
2022-08-18T18:55:02.336Z,21.64
2022-08-18T18:57:40.846Z,21.61
2022-08-18T19:00:21.055Z,21.48
2022-08-18T19:03:04.165Z,21.39
2022-08-18T19:05:39.640Z,21.40
2022-08-18T19:08:28.523Z,21.33
2022-08-18T19:11:12.369Z,21.11
2022-08-18T19:13:54.184Z,21.35
2022-08-18T19:16:31.831Z,21.21
2022-08-18T19:19:36.923Z,21.11
2022-08-18T19:22:09.784Z,20.89
2022-08-18T19:24:52.109Z,21.01
2022-08-18T19:27:34.229Z,20.88
2022-08-18T19:30:10.967Z,20.79
2022-08-18T19:32:45.919Z,20.82
2022-08-18T19:35:35.543Z,20.62
2022-08-18T19:38:21.087Z,20.59
2022-08-18T19:41:00.539Z,20.40
2022-08-18T19:43:44.652Z,20.46
2022-08-18T19:46:25.413Z,20.46
2022-08-18T19:48:59.873Z,20.42
2022-08-18T19:51:37.554Z,20.32
2022-08-18T19:54:39.659Z,20.22
2022-08-18T19:57:34.818Z,20.23
2022-08-18T20:00:18.439Z,20.34
2022-08-18T20:03:28.076Z,20.29
2022-08-18T20:06:34.939Z,20.16
2022-08-18T20:09:50.277Z,20.11
2022-08-18T20:12:53.816Z,20.01
2022-08-18T20:15:26.413Z,19.96
2022-08-18T20:18:20.749Z,19.82
2022-08-18T20:21:39.825Z,19.71
2022-08-18T20:24:32.804Z,19.65
2022-08-18T20:27:36.051Z,19.50
2022-08-18T20:30:28.504Z,19.35
2022-08-18T20:33:21.621Z,19.35
2022-08-18T20:36:08.170Z,19.20
2022-08-18T20:38:40.748Z,19.20
2022-08-18T20:41:47.283Z,19.17
2022-08-18T20:44:48.165Z,19.10
2022-08-18T20:47:57.348Z,19.03
2022-08-18T20:51:05.478Z,18.93
2022-08-18T20:54:18.875Z,18.92
2022-08-18T20:56:59.806Z,18.93
2022-08-18T20:59:39.505Z,18.93
2022-08-18T21:02:27.106Z,18.89
2022-08-18T21:05:01.058Z,18.89
2022-08-18T21:07:38.012Z,18.86
2022-08-18T21:10:23.613Z,18.90
2022-08-18T21:12:55.397Z,18.81
2022-08-18T21:15:30.429Z,18.73
2022-08-18T21:18:02.343Z,18.63
2022-08-18T21:20:33.627Z,18.56
2022-08-18T21:23:08.713Z,18.55
2022-08-18T21:25:42.195Z,18.37
2022-08-18T21:28:13.779Z,18.27
2022-08-18T21:31:28.954Z,18.49
2022-08-18T21:33:54.187Z,18.43
2022-08-18T21:36:32.191Z,18.36
2022-08-18T21:39:08.713Z,18.32
2022-08-18T21:41:46.515Z,18.26
2022-08-18T21:44:21.947Z,18.36
2022-08-18T21:47:05.847Z,18.34
2022-08-18T21:49:35.272Z,18.12
2022-08-18T21:52:05.172Z,18.17
2022-08-18T21:54:35.763Z,18.11
2022-08-18T21:57:23.027Z,17.97
2022-08-18T22:00:30.474Z,18.02
2022-08-18T22:03:23.836Z,18.01
2022-08-18T22:06:03.583Z,17.95
2022-08-18T22:08:49.870Z,17.96
2022-08-18T22:12:00.968Z,17.91
2022-08-18T22:14:53.682Z,17.89
2022-08-18T22:17:27.288Z,17.79
2022-08-18T22:20:41.671Z,18.10
2022-08-18T22:23:45.893Z,18.05
2022-08-18T22:26:22.437Z,18.03
2022-08-18T22:29:15.469Z,17.99
2022-08-18T22:31:54.789Z,17.94
2022-08-18T22:34:28.613Z,17.97
2022-08-18T22:37:09.450Z,17.86
2022-08-18T22:39:49.267Z,17.97
2022-08-18T22:42:21.282Z,18.02
2022-08-18T22:44:51.159Z,18.10
2022-08-18T22:47:24.038Z,18.03
2022-08-18T22:49:54.395Z,18.10
2022-08-18T22:52:31.548Z,18.08
2022-08-18T22:55:06.559Z,18.22
2022-08-18T22:57:36.541Z,18.14
2022-08-18T23:00:11.022Z,18.16
2022-08-18T23:02:40.585Z,18.23
2022-08-18T23:05:11.521Z,18.23
2022-08-18T23:07:42.865Z,18.22
2022-08-18T23:10:14.315Z,18.24
2022-08-18T23:12:44.672Z,18.11
2022-08-18T23:15:14.889Z,18.03
2022-08-18T23:18:10.000Z,18.09
2022-08-18T23:20:39.690Z,17.93
2022-08-18T23:23:11.907Z,17.89
2022-08-18T23:25:41.509Z,17.81
2022-08-18T23:28:11.133Z,17.75
2022-08-18T23:30:41.698Z,17.69
2022-08-18T23:33:11.650Z,17.20
2022-08-18T23:35:42.123Z,17.49
2022-08-18T23:38:15.861Z,17.52
2022-08-18T23:40:47.901Z,17.57
2022-08-18T23:43:17.714Z,17.44
2022-08-18T23:45:49.472Z,17.47
2022-08-18T23:48:21.294Z,17.26
2022-08-18T23:50:51.037Z,17.33
2022-08-18T23:53:23.478Z,17.33
2022-08-18T23:55:53.186Z,17.18
2022-08-18T23:58:22.680Z,17.21
